Time;durP1;ratioP1;P1;durP2;ratioP2;P2;SDS_P1;SDS_P2;PMS_P1;PMS_P2;Temp;Humidity;BMP_temperature;BMP_pressure;BME280_temperature;BME280_humidity;BME280_pressure;Samples;Min_cycle;Max_cycle;Signal;HPM_P1;HPM_P2
2023/04/12 00:01:54;;;;;;;7.15;2.10;;;;;;;10.88;60.96;99754.25;4923912;29;20050;-90
2023/04/12 00:04:35;;;;;;;7.38;1.63;;;;;;;10.72;61.10;99720.81;4948622;28;20047;-94
2023/04/12 00:07:27;;;;;;;7.30;1.77;;;;;;;10.67;61.07;99713.16;4942903;29;20111;-92
2023/04/12 00:12:41;;;;;;;5.93;1.98;;;;;;;10.89;61.50;99763.06;5023233;23;20487;-90
2023/04/12 00:15:25;;;;;;;5.70;1.60;;;;;;;10.82;61.86;99757.28;4959375;28;20103;-91
2023/04/12 00:17:55;;;;;;;5.82;1.60;;;;;;;10.19;62.59;99659.44;4957868;28;20047;-88
2023/04/12 00:20:26;;;;;;;10.80;1.58;;;;;;;10.72;62.88;99750.78;4950753;28;20078;-89
2023/04/12 00:23:11;;;;;;;6.22;1.80;;;;;;;10.30;63.04;99690.59;4973906;28;20044;-89
2023/04/12 00:25:42;;;;;;;4.57;1.33;;;;;;;10.66;62.72;99745.00;4975710;28;20099;-88
2023/04/12 00:28:16;;;;;;;6.68;1.60;;;;;;;10.68;63.56;99743.13;4945968;28;20046;-90
2023/04/12 00:30:58;;;;;;;7.63;1.48;;;;;;;10.54;64.14;99720.97;4943591;28;20031;-89
2023/04/12 00:33:32;;;;;;;5.60;1.58;;;;;;;10.80;64.64;99747.72;4969909;28;20035;-90
2023/04/12 00:36:05;;;;;;;6.10;1.70;;;;;;;10.84;64.66;99744.81;4920806;28;20071;-89
2023/04/12 00:38:44;;;;;;;6.22;1.75;;;;;;;10.87;64.49;99738.44;4933972;28;20036;-89
2023/04/12 00:41:26;;;;;;;5.47;2.00;;;;;;;10.65;67.67;99743.31;4943419;28;20035;-90
2023/04/12 00:43:55;;;;;;;8.13;1.80;;;;;;;10.42;68.59;99741.97;4958728;28;20070;-90
2023/04/12 00:46:30;;;;;;;8.38;2.08;;;;;;;10.14;69.15;99711.72;5075549;23;20068;-90
2023/04/12 00:49:19;;;;;;;9.43;2.00;;;;;;;10.23;70.07;99746.59;4883316;29;20099;-88
2023/04/12 00:52:23;;;;;;;7.95;2.03;;;;;;;9.79;70.78;99670.50;4915247;29;20047;-92
2023/04/12 00:54:56;;;;;;;7.15;1.92;;;;;;;10.21;73.02;99741.38;4909507;29;20079;-92
2023/04/12 00:57:38;;;;;;;6.05;1.98;;;;;;;9.87;79.22;99707.13;4917172;29;20055;-94
2023/04/12 01:00:13;;;;;;;7.60;1.88;;;;;;;9.78;79.04;99724.31;4914151;29;20055;-92
2023/04/12 01:02:49;;;;;;;7.50;1.90;;;;;;;9.63;85.28;99690.78;4908349;29;20040;-90
2023/04/12 01:05:25;;;;;;;4.75;1.70;;;;;;;9.72;85.92;99708.81;4911054;28;20031;-90
2023/04/12 01:08:28;;;;;;;6.85;1.83;;;;;;;9.87;89.44;99734.44;4897784;29;20038;-91
2023/04/12 01:11:30;;;;;;;6.07;1.75;;;;;;;9.89;92.76;99739.63;4925216;28;20032;-90
2023/04/12 01:14:29;;;;;;;5.95;1.90;;;;;;;9.28;97.50;99631.94;4953796;23;20058;-90
2023/04/12 01:17:06;;;;;;;7.93;2.13;;;;;;;9.28;100.00;99630.16;4919468;29;20075;-90
2023/04/12 01:22:45;;;;;;;9.93;2.03;;;;;;;9.86;100.00;99711.56;4954491;28;20034;-90
2023/04/12 01:25:39;;;;;;;6.15;1.80;;;;;;;9.75;100.00;99688.34;4963471;28;20098;-89
2023/04/12 01:28:11;;;;;;;6.78;1.83;;;;;;;9.65;100.00;99659.84;4956260;28;20035;-91
2023/04/12 01:30:56;;;;;;;5.30;1.63;;;;;;;9.72;100.00;99679.75;4935122;29;20067;-90
2023/04/12 01:33:30;;;;;;;9.77;2.00;;;;;;;9.61;100.00;99667.09;4947986;29;20054;-91
2023/04/12 01:36:19;;;;;;;11.60;2.35;;;;;;;9.34;100.00;99650.09;4931431;29;20050;-92
2023/04/12 01:39:03;;;;;;;7.05;1.98;;;;;;;8.93;100.00;99583.63;4936610;29;20040;-90
2023/04/12 01:41:38;;;;;;;5.28;1.88;;;;;;;9.20;100.00;99621.75;4959247;28;20059;-90
2023/04/12 01:44:13;;;;;;;9.40;1.95;;;;;;;9.53;100.00;99677.22;4955774;29;20047;-92
2023/04/12 01:46:42;;;;;;;7.20;1.98;;;;;;;9.39;100.00;99635.69;4954351;29;20481;-92
2023/04/12 01:49:38;;;;;;;6.43;2.03;;;;;;;9.38;100.00;99626.06;4943384;29;20047;-92
2023/04/12 01:52:30;;;;;;;8.20;2.10;;;;;;;9.29;100.00;99588.69;4950718;29;20118;-93
2023/04/12 01:55:05;;;;;;;8.35;1.83;;;;;;;9.63;100.00;99657.28;4934313;29;20062;-91
2023/04/12 01:57:50;;;;;;;5.47;1.98;;;;;;;9.60;100.00;99643.41;4929791;29;20137;-90
2023/04/12 02:00:35;;;;;;;7.30;2.10;;;;;;;9.54;100.00;99641.09;4959460;28;20043;-93
2023/04/12 02:03:05;;;;;;;9.27;1.85;;;;;;;9.47;100.00;99630.84;4961706;28;20473;-90
2023/04/12 02:05:40;;;;;;;7.70;2.03;;;;;;;9.41;100.00;99623.25;4906141;29;20047;-94
2023/04/12 02:08:11;;;;;;;5.70;2.03;;;;;;;9.45;100.00;99632.69;4933233;29;20051;-91
2023/04/12 02:10:39;;;;;;;9.57;2.17;;;;;;;9.45;100.00;99642.41;4931526;29;20052;-93
2023/04/12 02:13:07;;;;;;;7.53;2.53;;;;;;;9.40;100.00;99633.91;4960045;29;20055;-94
2023/04/12 02:15:37;;;;;;;10.00;2.35;;;;;;;9.06;100.00;99582.88;4928659;29;20105;-94
2023/04/12 02:18:06;;;;;;;5.53;2.20;;;;;;;9.35;100.00;99623.59;4938140;29;20066;-93
2023/04/12 02:20:42;;;;;;;7.60;2.17;;;;;;;9.41;100.00;99633.84;4921153;29;20086;-92
2023/04/12 02:23:13;;;;;;;7.32;2.28;;;;;;;9.38;100.00;99630.50;4912970;29;20183;-93
2023/04/12 02:25:41;;;;;;;6.28;2.20;;;;;;;9.29;100.00;99637.09;4911469;29;20084;-93
2023/04/12 02:28:16;;;;;;;6.28;2.20;;;;;;;8.94;100.00;99577.41;4942430;29;20048;-93
2023/04/12 02:30:47;;;;;;;7.65;2.40;;;;;;;9.24;100.00;99625.97;4928658;29;20055;-93
2023/04/12 02:33:26;;;;;;;9.20;2.63;;;;;;;8.81;100.00;99550.81;4928671;29;20069;-92
2023/04/12 02:36:03;;;;;;;7.43;2.60;;;;;;;8.91;100.00;99569.66;4925262;29;20102;-92
2023/04/12 02:38:42;;;;;;;10.23;2.60;;;;;;;8.95;100.00;99573.84;4917017;29;20070;-91
2023/04/12 02:41:16;;;;;;;7.40;2.38;;;;;;;8.68;100.00;99518.06;4926757;29;20052;-92
2023/04/12 02:43:48;;;;;;;8.23;2.95;;;;;;;8.86;100.00;99553.19;4915806;29;20052;-93
2023/04/12 02:46:21;;;;;;;9.25;2.60;;;;;;;8.51;100.00;99492.56;4929511;29;20079;-90
2023/04/12 02:48:56;;;;;;;12.32;3.47;;;;;;;8.96;100.00;99579.03;4954906;29;20040;-93
2023/04/12 02:51:23;;;;;;;7.90;2.88;;;;;;;8.39;100.00;99487.94;4933302;29;20100;-90
2023/04/12 02:54:06;;;;;;;7.28;2.80;;;;;;;8.64;100.00;99541.16;4941200;29;20041;-91
2023/04/12 02:56:44;;;;;;;6.40;2.72;;;;;;;8.79;100.00;99571.16;4955326;29;20078;-90
2023/04/12 02:59:13;;;;;;;8.45;3.10;;;;;;;8.68;100.00;99549.72;4954307;29;20132;-91
2023/04/12 03:01:45;;;;;;;7.32;2.97;;;;;;;8.41;100.00;99492.22;4938204;29;20072;-90
2023/04/12 03:04:15;;;;;;;8.77;2.53;;;;;;;8.55;100.00;99504.66;4936892;29;20104;-90
2023/04/12 03:06:57;;;;;;;6.53;2.90;;;;;;;8.17;100.00;99446.00;4936387;29;20036;-92
2023/04/12 03:09:56;;;;;;;11.38;3.30;;;;;;;8.70;100.00;99516.19;4929887;29;20048;-93
2023/04/12 03:12:32;;;;;;;10.48;3.58;;;;;;;8.83;100.00;99543.66;4938951;29;20051;-93
2023/04/12 03:15:09;;;;;;;10.05;3.28;;;;;;;8.47;100.00;99495.47;4929374;29;20052;-94
2023/04/12 03:17:37;;;;;;;9.95;3.65;;;;;;;8.51;100.00;99516.31;4929983;29;20067;-93
2023/04/12 03:20:09;;;;;;;10.63;3.40;;;;;;;8.25;100.00;99477.22;4928771;29;20048;-94
2023/04/12 03:22:38;;;;;;;12.35;3.67;;;;;;;8.02;100.00;99429.19;4956737;29;20103;-91
2023/04/12 03:25:11;;;;;;;7.90;3.42;;;;;;;8.32;100.00;99465.47;4961554;29;20053;-93
2023/04/12 03:27:58;;;;;;;12.43;3.63;;;;;;;8.00;100.00;99420.50;4921874;29;20095;-94
2023/04/12 03:30:40;;;;;;;7.85;3.28;;;;;;;8.48;100.00;99505.94;4954463;29;20048;-93
2023/04/12 03:33:13;;;;;;;9.52;3.25;;;;;;;8.41;100.00;99504.53;4944114;29;20099;-90
2023/04/12 03:35:57;;;;;;;9.77;3.28;;;;;;;8.38;100.00;99487.09;4945717;29;20233;-91
2023/04/12 03:38:26;;;;;;;11.23;3.60;;;;;;;8.46;100.00;99493.75;4956643;29;20047;-90
2023/04/12 03:40:55;;;;;;;9.55;3.53;;;;;;;8.45;100.00;99490.28;4961717;29;20058;-90
2023/04/12 03:43:24;;;;;;;8.90;3.75;;;;;;;8.53;100.00;99482.78;4960188;28;20051;-93
2023/04/12 03:45:52;;;;;;;8.82;3.40;;;;;;;8.12;100.00;99411.09;4952279;29;20067;-92
2023/04/12 03:48:23;;;;;;;10.88;3.40;;;;;;;8.28;100.00;99459.47;4932362;29;20043;-93
2023/04/12 03:51:11;;;;;;;10.85;4.18;;;;;;;8.13;100.00;99427.78;4955200;29;20066;-91
2023/04/12 03:53:40;;;;;;;8.57;3.42;;;;;;;8.26;100.00;99434.09;4936398;29;20062;-90
2023/04/12 03:56:19;;;;;;;9.30;3.72;;;;;;;8.21;100.00;99426.41;4951907;28;20035;-89
2023/04/12 03:58:47;;;;;;;9.23;3.63;;;;;;;8.35;100.00;99434.47;4945824;29;20048;-92
2023/04/12 04:01:16;;;;;;;10.98;3.92;;;;;;;8.41;100.00;99449.16;4941554;29;20102;-92
2023/04/12 04:03:44;;;;;;;9.95;4.38;;;;;;;8.37;100.00;99434.41;4947503;29;20070;-92
2023/04/12 04:06:16;;;;;;;12.88;4.93;;;;;;;8.42;100.00;99437.66;4953282;28;20043;-90
2023/04/12 04:08:43;;;;;;;7.60;4.30;;;;;;;8.36;100.00;99430.06;4956384;29;20037;-91
2023/04/12 04:11:13;;;;;;;8.52;3.38;;;;;;;8.36;100.00;99422.16;4938263;29;20047;-91
2023/04/12 04:13:40;;;;;;;8.48;3.85;;;;;;;8.35;100.00;99420.44;4942088;28;20099;-92
2023/04/12 04:16:14;;;;;;;12.35;4.13;;;;;;;8.35;100.00;99417.81;4940865;29;20051;-93
2023/04/12 04:18:43;;;;;;;7.75;4.00;;;;;;;8.31;100.00;99424.16;4940619;29;20138;-93
2023/04/12 04:21:16;;;;;;;6.50;3.60;;;;;;;8.30;100.00;99409.28;4939995;29;20060;-91
2023/04/12 04:23:47;;;;;;;;;;;;;;;8.29;100.00;99407.56;4942808;29;20182;-92
2023/04/12 04:26:17;;;;;;;9.73;4.10;;;;;;;7.90;100.00;99334.91;4934613;29;20504;-93
2023/04/12 04:28:49;;;;;;;8.77;4.05;;;;;;;8.26;100.00;99386.63;4950686;29;20043;-94
2023/04/12 04:31:18;;;;;;;9.50;4.13;;;;;;;7.99;100.00;99344.97;4929570;29;20054;-93
2023/04/12 04:33:49;;;;;;;8.82;4.20;;;;;;;8.26;100.00;99399.81;4931580;29;20044;-92
2023/04/12 04:36:17;;;;;;;6.78;3.97;;;;;;;7.95;100.00;99321.50;4948463;29;20094;-95
2023/04/12 04:38:47;;;;;;;6.85;3.47;;;;;;;7.67;100.00;99274.66;4956549;29;20046;-92
2023/04/12 04:41:14;;;;;;;9.70;3.33;;;;;;;7.96;100.00;99321.41;4943261;29;20123;-90
2023/04/12 04:43:45;;;;;;;7.60;3.38;;;;;;;8.03;100.00;99328.03;4946303;29;20042;-91
2023/04/12 04:46:20;;;;;;;7.18;2.78;;;;;;;8.25;100.00;99361.19;4946805;29;20043;-88
2023/04/12 04:48:50;;;;;;;7.30;2.95;;;;;;;8.30;100.00;99353.88;4947397;29;20047;-91
2023/04/12 04:51:17;;;;;;;7.68;3.30;;;;;;;8.27;100.00;99340.84;4946372;29;20048;-90
2023/04/12 04:53:45;;;;;;;6.55;2.63;;;;;;;8.26;100.00;99336.50;4939404;29;20044;-90
2023/04/12 04:56:12;;;;;;;5.47;3.00;;;;;;;8.22;100.00;99329.69;4939868;28;20072;-92
2023/04/12 04:58:39;;;;;;;8.45;3.00;;;;;;;8.19;100.00;99328.06;4945231;29;20042;-92
2023/04/12 05:01:06;;;;;;;4.75;2.60;;;;;;;8.22;100.00;99324.41;4952596;28;20055;-90
2023/04/12 05:03:33;;;;;;;5.00;2.70;;;;;;;8.18;100.00;99323.75;4943176;29;20295;-91
2023/04/12 05:06:02;;;;;;;5.88;2.75;;;;;;;8.09;100.00;99311.06;4935312;29;20047;-90
2023/04/12 05:08:31;;;;;;;4.70;2.67;;;;;;;8.16;100.00;99319.50;4949047;29;20124;-92
2023/04/12 05:11:02;;;;;;;6.18;2.33;;;;;;;8.06;100.00;99287.47;4941148;29;20054;-92
2023/04/12 05:13:33;;;;;;;7.03;2.58;;;;;;;8.08;100.00;99291.75;4942335;29;20047;-91
2023/04/12 05:15:59;;;;;;;6.90;2.60;;;;;;;8.19;100.00;99299.06;4950641;29;20049;-94
2023/04/12 05:18:26;;;;;;;3.85;2.42;;;;;;;8.19;100.00;99292.94;4931480;29;20099;-93
2023/04/12 05:20:53;;;;;;;4.20;2.38;;;;;;;8.16;100.00;99288.72;4947047;29;20103;-93
2023/04/12 05:23:20;;;;;;;7.20;2.42;;;;;;;8.12;100.00;99281.88;4936491;29;20396;-94
2023/04/12 05:25:56;;;;;;;3.95;2.00;;;;;;;8.12;100.00;99275.75;4932808;29;20093;-93
2023/04/12 05:28:24;;;;;;;5.28;2.20;;;;;;;8.16;100.00;99277.31;4924925;29;20056;-93
2023/04/12 05:30:54;;;;;;;;;;;;;;;8.14;100.00;99273.91;4932770;29;20043;-93
2023/04/12 05:33:22;;;;;;;5.75;2.33;;;;;;;7.95;100.00;99245.91;4934675;29;19922;-93
2023/04/12 05:36:00;;;;;;;4.18;2.33;;;;;;;8.07;100.00;99265.47;4935296;29;20051;-93
2023/04/12 05:38:33;;;;;;;5.43;2.03;;;;;;;8.13;100.00;99269.56;4926436;29;20048;-92
2023/04/12 05:41:04;;;;;;;4.18;2.10;;;;;;;8.15;100.00;99265.06;4947112;29;20099;-92
2023/04/12 05:43:31;;;;;;;;;;;;;;;8.15;100.00;99255.34;4931827;29;20116;-93
2023/04/12 05:46:06;;;;;;;4.50;1.85;;;;;;;8.20;100.00;99249.81;4941464;29;19927;-92
2023/04/12 05:48:47;;;;;;;4.65;2.03;;;;;;;8.14;100.00;99247.53;4924856;29;20054;-91
2023/04/12 05:51:26;;;;;;;4.70;2.13;;;;;;;7.99;100.00;99229.00;4959760;28;20039;-92
2023/04/12 05:54:09;;;;;;;4.20;2.20;;;;;;;7.80;100.00;99204.56;4944772;29;20047;-91
2023/04/12 05:56:45;;;;;;;4.18;2.13;;;;;;;8.06;100.00;99235.59;4930607;29;20475;-93
2023/04/12 05:59:13;;;;;;;4.43;2.08;;;;;;;8.01;100.00;99227.13;4922748;29;20059;-90
2023/04/12 06:01:56;;;;;;;26.58;16.23;;;;;;;8.01;100.00;99213.94;4913921;29;20052;-91
2023/04/12 06:04:26;;;;;;;15.07;8.52;;;;;;;8.02;100.00;99206.88;4918328;29;20043;-91
2023/04/12 06:07:18;;;;;;;5.03;2.35;;;;;;;7.86;100.00;99191.06;4939121;29;20449;-85
2023/04/12 06:09:46;;;;;;;6.68;2.22;;;;;;;8.06;100.00;99209.25;4950659;29;20071;-91
2023/04/12 06:12:12;;;;;;;5.20;2.17;;;;;;;8.04;100.00;99203.19;4943514;29;20048;-88
2023/04/12 06:14:41;;;;;;;4.53;2.70;;;;;;;8.06;100.00;99198.69;4952466;29;20096;-86
2023/04/12 06:17:08;;;;;;;4.90;2.47;;;;;;;7.79;100.00;99146.66;4953546;29;20107;-90
2023/04/12 06:19:36;;;;;;;9.45;2.90;;;;;;;7.96;100.00;99171.16;4935966;29;20062;-86
2023/04/12 06:22:02;;;;;;;4.28;2.10;;;;;;;8.04;100.00;99174.19;4944519;29;20043;-90
2023/04/12 06:24:31;;;;;;;4.40;2.15;;;;;;;7.90;100.00;99155.66;4925935;29;20062;-89
2023/04/12 06:26:57;;;;;;;3.58;2.05;;;;;;;7.99;100.00;99162.22;4947590;29;20047;-87
2023/04/12 06:29:24;;;;;;;3.78;2.13;;;;;;;8.02;100.00;99164.69;4956382;29;20038;-86
2023/04/12 06:31:52;;;;;;;3.33;1.98;;;;;;;7.63;100.00;99089.56;4942245;28;20047;-87
2023/04/12 06:34:20;;;;;;;4.22;2.20;;;;;;;8.03;100.00;99151.41;4955745;29;20055;-85
2023/04/12 06:36:46;;;;;;;3.72;2.60;;;;;;;8.07;100.00;99162.63;4948874;29;20039;-87
2023/04/12 06:39:15;;;;;;;5.85;2.25;;;;;;;8.01;100.00;99142.75;4942672;28;20107;-89
2023/04/12 06:41:46;;;;;;;4.22;2.80;;;;;;;8.12;100.00;99151.84;4919415;29;20135;-87
2023/04/12 06:44:14;;;;;;;3.92;2.30;;;;;;;7.97;100.00;99153.56;4955821;28;20043;-89
2023/04/12 06:46:44;;;;;;;7.97;2.10;;;;;;;8.01;100.00;99145.41;4932774;29;20055;-88
2023/04/12 06:49:11;;;;;;;4.93;2.28;;;;;;;8.05;100.00;99149.53;4930092;29;20047;-89
2023/04/12 06:51:38;;;;;;;3.90;1.95;;;;;;;7.91;100.00;99103.81;4945459;29;20051;-88
2023/04/12 06:54:04;;;;;;;4.97;2.03;;;;;;;8.02;100.00;99125.16;4928491;29;20055;-88
2023/04/12 06:56:31;;;;;;;2.97;1.90;;;;;;;8.04;100.00;99132.00;4931662;29;20053;-86
2023/04/12 06:58:58;;;;;;;4.95;2.10;;;;;;;8.03;100.00;99119.75;4958948;28;20518;-87
2023/04/12 07:01:26;;;;;;;4.22;2.20;;;;;;;8.03;100.00;99103.09;4943816;29;20054;-88
2023/04/12 07:03:52;;;;;;;3.53;1.98;;;;;;;8.06;100.00;99116.13;4952665;29;20202;-89
2023/04/12 07:06:19;;;;;;;3.35;2.10;;;;;;;8.12;100.00;99115.78;4944688;29;20076;-88
2023/04/12 07:08:51;;;;;;;2.95;1.92;;;;;;;8.12;100.00;99099.97;4945056;29;20061;-88
2023/04/12 07:11:21;;;;;;;6.05;1.83;;;;;;;8.10;100.00;99104.47;4936270;29;20051;-87
2023/04/12 07:13:49;;;;;;;2.78;1.70;;;;;;;7.82;100.00;99035.81;4933780;29;20147;-88
2023/04/12 07:16:20;;;;;;;2.92;1.70;;;;;;;7.91;100.00;99033.50;4919118;29;20051;-87
2023/04/12 07:18:47;;;;;;;3.45;2.10;;;;;;;7.88;100.00;99028.38;4926687;29;20051;-87
2023/04/12 07:21:16;;;;;;;3.63;1.80;;;;;;;7.83;100.00;99027.81;4927194;29;20056;-87
2023/04/12 07:23:43;;;;;;;2.25;1.75;;;;;;;8.12;100.00;99046.38;4930823;29;20048;-89
2023/04/12 07:26:10;;;;;;;2.25;1.90;;;;;;;8.30;100.00;99079.59;4922007;29;20054;-89
2023/04/12 07:28:38;;;;;;;1.90;1.45;;;;;;;8.07;100.00;99010.56;4927424;29;20067;-89
2023/04/12 07:31:06;;;;;;;2.78;2.00;;;;;;;7.84;100.00;98976.81;4925571;29;20054;-88
2023/04/12 07:33:34;;;;;;;5.82;1.77;;;;;;;8.29;100.00;99047.09;4936827;29;20036;-89
2023/04/12 07:36:03;;;;;;;2.50;1.67;;;;;;;8.16;100.00;99021.53;4939940;29;20104;-85
2023/04/12 07:38:30;;;;;;;2.33;1.65;;;;;;;8.07;100.00;98999.19;4925731;29;20063;-88
2023/04/12 07:40:57;;;;;;;2.67;1.52;;;;;;;8.38;100.00;99028.09;4931378;29;20431;-86
2023/04/12 07:43:24;;;;;;;4.63;1.90;;;;;;;8.44;100.00;99008.44;4931661;29;20074;-87
2023/04/12 07:45:53;;;;;;;3.17;1.95;;;;;;;8.35;100.00;99001.91;4925035;29;20040;-86
2023/04/12 07:48:20;;;;;;;2.65;1.70;;;;;;;8.41;100.00;99013.88;4954272;28;20036;-83
2023/04/12 07:50:50;;;;;;;2.20;1.52;;;;;;;8.26;100.00;98988.41;4923877;29;20062;-85
2023/04/12 07:53:22;;;;;;;4.93;1.83;;;;;;;8.30;100.00;99001.31;4945965;29;20361;-84
2023/04/12 07:55:50;;;;;;;3.30;1.90;;;;;;;8.43;100.00;99014.66;4935889;29;20056;-88
2023/04/12 07:58:18;;;;;;;4.45;2.00;;;;;;;8.44;100.00;99011.06;4926937;29;20501;-85
2023/04/12 08:00:46;;;;;;;2.05;1.70;;;;;;;8.49;100.00;98992.31;4923239;29;20048;-86
2023/04/12 08:03:15;;;;;;;2.55;1.90;;;;;;;8.55;100.00;98995.44;4925335;29;20058;-88
2023/04/12 08:05:43;;;;;;;2.28;1.75;;;;;;;8.60;100.00;99001.28;4932771;29;20048;-88
2023/04/12 08:08:12;;;;;;;4.70;1.90;;;;;;;8.65;100.00;98995.72;4927165;29;20044;-86
2023/04/12 08:10:39;;;;;;;2.17;1.60;;;;;;;8.63;100.00;98998.47;4924264;29;20354;-88
2023/04/12 08:13:06;;;;;;;3.17;1.80;;;;;;;8.59;100.00;98986.38;4933974;29;20111;-88
2023/04/12 08:15:46;;;;;;;2.63;1.55;;;;;;;8.42;100.00;98945.22;4926230;29;20110;-87
2023/04/12 08:18:13;;;;;;;3.40;1.70;;;;;;;8.65;100.00;98978.09;4923822;29;20120;-88
2023/04/12 08:20:42;;;;;;;3.38;1.55;;;;;;;8.40;100.00;98944.44;4928508;29;20091;-86
2023/04/12 08:23:12;;;;;;;3.08;2.03;;;;;;;8.68;100.00;98985.81;4931722;29;20044;-85
2023/04/12 08:25:43;;;;;;;4.70;2.38;;;;;;;8.78;100.00;98978.19;4928119;29;20067;-86
2023/04/12 08:28:11;;;;;;;5.47;1.90;;;;;;;8.67;100.00;98960.38;4919645;29;20056;-86
2023/04/12 08:30:37;;;;;;;2.35;1.80;;;;;;;8.79;100.00;98971.97;4926164;29;20509;-87
2023/04/12 08:33:05;;;;;;;2.88;1.98;;;;;;;8.75;100.00;98955.47;4926140;29;20055;-87
2023/04/12 08:35:32;;;;;;;3.15;1.83;;;;;;;8.76;100.00;98954.53;4941706;29;20070;-86
2023/04/12 08:38:06;;;;;;;3.63;1.80;;;;;;;8.78;100.00;98959.72;4932465;29;20059;-89
2023/04/12 08:40:34;;;;;;;2.63;1.80;;;;;;;8.55;100.00;98926.81;4933860;29;20048;-86
2023/04/12 08:43:07;;;;;;;3.08;2.05;;;;;;;8.61;100.00;98944.94;4956414;29;20084;-85
2023/04/12 08:45:37;;;;;;;4.20;2.00;;;;;;;8.73;100.00;98953.88;4933454;29;20131;-87
2023/04/12 08:48:10;;;;;;;3.35;2.13;;;;;;;8.68;100.00;98948.88;4930863;29;20060;-89
2023/04/12 08:50:50;;;;;;;4.97;2.00;;;;;;;8.75;100.00;98950.19;4928974;29;20044;-87
2023/04/12 08:53:17;;;;;;;3.67;1.95;;;;;;;8.73;100.00;98936.25;4934331;29;20159;-87
2023/04/12 08:55:46;;;;;;;4.55;2.13;;;;;;;8.78;100.00;98942.09;4934022;29;20130;-89
2023/04/12 08:58:18;;;;;;;2.97;2.17;;;;;;;8.80;100.00;98931.44;4933364;29;20103;-83
2023/04/12 09:00:47;;;;;;;4.53;2.17;;;;;;;8.86;100.00;98938.09;4916670;29;20064;-88
2023/04/12 09:03:17;;;;;;;3.60;2.25;;;;;;;8.84;100.00;98916.22;4932951;29;20416;-87
2023/04/12 09:06:02;;;;;;;4.55;2.35;;;;;;;8.88;100.00;98926.50;4921154;29;20055;-86
2023/04/12 09:08:29;;;;;;;3.83;2.45;;;;;;;8.88;100.00;98901.91;4938253;29;20059;-89
2023/04/12 09:10:57;;;;;;;3.10;2.05;;;;;;;8.76;100.00;98880.63;4942643;29;20063;-85
2023/04/12 09:13:35;;;;;;;4.47;2.00;;;;;;;8.75;100.00;98886.84;4938338;29;20042;-85
2023/04/12 09:16:03;;;;;;;5.25;2.30;;;;;;;8.88;100.00;98904.53;4945757;29;20072;-84
2023/04/12 09:18:46;;;;;;;;;;;;;;;8.93;100.00;98903.31;4945458;29;20060;-85
2023/04/12 09:21:14;;;;;;;3.00;2.05;;;;;;;8.85;100.00;98878.34;4950594;28;19911;-84
2023/04/12 09:24:12;;;;;;;3.40;2.05;;;;;;;9.04;100.00;98892.06;4943718;29;20058;-85
2023/04/12 09:26:42;;;;;;;5.57;2.30;;;;;;;9.07;100.00;98891.88;4941292;29;20035;-87
2023/04/12 09:29:26;;;;;;;4.82;2.63;;;;;;;8.84;100.00;98843.16;4957784;29;20050;-87
2023/04/12 09:32:03;;;;;;;4.18;2.65;;;;;;;8.58;100.00;98805.28;4915241;29;20075;-87
2023/04/12 09:34:32;;;;;;;4.30;3.25;;;;;;;8.79;100.00;98837.38;4958818;29;20634;-87
2023/04/12 09:37:15;;;;;;;6.87;3.37;;;;;;;8.72;100.00;98842.19;4953176;29;20120;-87
2023/04/12 09:39:46;;;;;;;26.80;17.90;;;;;;;8.55;100.00;98823.09;4946625;29;20062;-89
2023/04/12 09:42:33;;;;;;;6.72;4.07;;;;;;;8.66;100.00;98842.56;4957022;29;20072;-86
2023/04/12 09:45:24;;;;;;;13.68;9.50;;;;;;;8.58;100.00;98815.81;4934291;29;20094;-84
2023/04/12 09:47:58;;;;;;;9.05;3.67;;;;;;;8.89;100.00;98861.38;4933684;29;20044;-89
2023/04/12 09:50:27;;;;;;;6.03;3.08;;;;;;;9.02;100.00;98851.69;4912078;29;20157;-89
2023/04/12 09:52:57;;;;;;;5.25;3.08;;;;;;;8.93;100.00;98841.75;4944049;29;20123;-91
2023/04/12 09:55:25;;;;;;;6.18;3.42;;;;;;;8.98;100.00;98850.19;4936546;29;20047;-88
2023/04/12 09:57:55;;;;;;;7.67;3.50;;;;;;;9.00;100.00;98843.03;4917673;29;20057;-90
2023/04/12 10:00:25;;;;;;;16.55;7.07;;;;;;;9.14;100.00;98837.69;4958922;29;20055;-89
2023/04/12 10:02:55;;;;;;;10.05;4.55;;;;;;;8.90;100.00;98768.03;4935216;29;20090;-91
2023/04/12 10:05:25;;;;;;;9.45;4.10;;;;;;;9.41;100.00;98835.03;4922806;29;20044;-85
2023/04/12 10:07:55;;;;;;;6.97;4.00;;;;;;;9.33;100.00;98801.19;4933714;29;20042;-91
2023/04/12 10:10:27;;;;;;;7.70;4.05;;;;;;;9.12;100.00;98761.25;4947972;29;20047;-90
2023/04/12 10:12:56;;;;;;;5.50;3.33;;;;;;;9.55;100.00;98826.19;4916249;29;20066;-91
2023/04/12 10:15:25;;;;;;;;;;;;;;;9.50;100.00;98821.19;4933333;29;20058;-89
2023/04/12 10:17:54;;;;;;;13.65;6.88;;;;;;;9.59;100.00;98806.53;4939376;29;19946;-88
2023/04/12 10:20:22;;;;;;;9.55;5.28;;;;;;;9.58;100.00;98787.19;4937173;29;20051;-90
2023/04/12 10:22:56;;;;;;;11.50;4.78;;;;;;;9.75;100.00;98793.94;4946900;29;20459;-88
2023/04/12 10:25:26;;;;;;;7.53;4.57;;;;;;;9.79;100.00;98785.69;4939025;29;20036;-88
2023/04/12 10:27:54;;;;;;;16.17;10.35;;;;;;;9.83;100.00;98796.91;4936215;29;20054;-87
2023/04/12 10:30:27;;;;;;;8.32;3.92;;;;;;;9.78;100.00;98793.72;4949178;29;20047;-87
2023/04/12 10:33:01;;;;;;;9.52;4.95;;;;;;;9.76;100.00;98798.25;4957323;29;20167;-89
2023/04/12 10:35:49;;;;;;;7.70;4.75;;;;;;;9.25;100.00;98708.44;4960612;29;20053;-88
2023/04/12 10:38:17;;;;;;;10.93;4.65;;;;;;;9.89;100.00;98788.56;4946382;29;20055;-90
2023/04/12 10:41:16;;;;;;;11.40;5.40;;;;;;;9.83;100.00;98795.09;4939575;29;20048;-88
2023/04/12 10:43:48;;;;;;;10.18;5.07;;;;;;;9.55;100.00;98733.69;4931246;29;20040;-87
2023/04/12 10:46:37;;;;;;;8.48;4.95;;;;;;;9.95;100.00;98781.97;4934026;29;20040;-89
2023/04/12 10:49:10;;;;;;;13.57;5.57;;;;;;;10.11;100.00;98778.16;4943578;29;20062;-90
2023/04/12 10:51:38;;;;;;;9.77;5.47;;;;;;;10.21;100.00;98759.03;4957168;29;20051;-87
2023/04/12 10:54:17;;;;;;;9.60;5.00;;;;;;;10.27;100.00;98769.16;4936930;29;20077;-86
2023/04/12 10:56:46;;;;;;;8.30;4.45;;;;;;;10.12;100.00;98750.75;4925278;29;20123;-89
2023/04/12 10:59:14;;;;;;;11.50;6.13;;;;;;;10.29;100.00;98772.53;4930536;29;20062;-89
2023/04/12 11:02:03;;;;;;;10.20;5.63;;;;;;;10.23;100.00;98767.69;4945684;29;20085;-85
2023/04/12 11:04:31;;;;;;;;;;;;;;;10.19;100.00;98764.41;4937005;29;20089;-89
2023/04/12 11:07:10;;;;;;;10.70;6.00;;;;;;;9.77;100.00;98675.72;4940592;29;19923;-87
2023/04/12 11:09:41;;;;;;;17.42;8.95;;;;;;;10.04;100.00;98713.44;4925297;29;20459;-86
2023/04/12 11:12:13;;;;;;;29.58;16.60;;;;;;;10.24;100.00;98732.31;4934112;29;20047;-90
2023/04/12 11:14:50;;;;;;;;;;;;;;;10.42;100.00;98754.81;4938807;28;20062;-89
2023/04/12 11:17:21;;;;;;;10.30;5.13;;;;;;;10.46;100.00;98748.34;4948599;29;19907;-86
2023/04/12 11:19:52;;;;;;;10.48;5.43;;;;;;;10.45;100.00;98742.22;4940803;29;20043;-89
2023/04/12 11:22:22;;;;;;;9.07;5.07;;;;;;;10.55;100.00;98735.28;4966426;29;20361;-87
2023/04/12 11:24:53;;;;;;;12.15;5.30;;;;;;;10.70;100.00;98725.41;4951928;28;20036;-89
2023/04/12 11:27:21;;;;;;;7.07;4.60;;;;;;;10.80;100.00;98715.81;4942466;29;20275;-87
2023/04/12 11:29:54;;;;;;;7.88;5.45;;;;;;;10.66;100.00;98680.72;4961001;29;20123;-89
2023/04/12 11:32:25;;;;;;;9.60;5.75;;;;;;;10.92;100.00;98714.03;4929540;29;20083;-90
2023/04/12 11:34:53;;;;;;;;;;;;;;;10.98;100.00;98723.34;4930455;29;20043;-90
2023/04/12 11:37:21;;;;;;;8.18;4.97;;;;;;;10.77;100.00;98681.59;4940320;29;19929;-85
2023/04/12 11:39:55;;;;;;;9.73;4.60;;;;;;;10.81;100.00;98669.84;4941295;29;20028;-90
2023/04/12 11:42:25;;;;;;;8.85;4.68;;;;;;;10.90;100.00;98665.63;4960388;29;20111;-88
2023/04/12 11:44:54;;;;;;;8.57;5.03;;;;;;;11.04;100.00;98680.47;4939697;29;20043;-89
2023/04/12 11:47:42;;;;;;;7.30;4.78;;;;;;;11.08;100.00;98680.13;4952071;28;20051;-92
2023/04/12 11:50:15;;;;;;;7.25;4.82;;;;;;;11.01;100.00;98648.94;4943915;29;20067;-91
2023/04/12 11:52:44;;;;;;;8.68;4.72;;;;;;;11.09;100.00;98634.16;4948013;29;20123;-90
2023/04/12 11:55:35;;;;;;;9.07;4.88;;;;;;;11.06;100.00;98636.19;4934845;29;20123;-90
2023/04/12 11:58:03;;;;;;;8.48;4.50;;;;;;;11.46;100.00;98695.75;4937564;29;20048;-92
2023/04/12 12:00:48;;;;;;;8.43;4.90;;;;;;;11.45;100.00;98667.56;4933146;29;20067;-89
2023/04/12 12:03:18;;;;;;;8.27;5.20;;;;;;;11.61;100.00;98659.25;4953816;29;20058;-90
2023/04/12 12:05:47;;;;;;;8.07;4.93;;;;;;;11.48;100.00;98632.88;4937858;29;20111;-89
2023/04/12 12:08:21;;;;;;;7.95;4.75;;;;;;;11.59;100.00;98659.38;4936901;29;20131;-90